createdAt,value
2019-03-29T00:03:15.442Z,62896.21
2019-03-29T00:05:41.675Z,62902.20
2019-03-29T00:08:09.169Z,62903.10
2019-03-29T00:10:36.040Z,62892.52
2019-03-29T00:13:02.285Z,62886.54
2019-03-29T00:15:28.545Z,62895.79
2019-03-29T00:17:54.781Z,62917.12
2019-03-29T00:20:21.005Z,62909.51
2019-03-29T00:22:47.228Z,62908.41
2019-03-29T00:25:13.470Z,62899.48
2019-03-29T00:27:39.691Z,62904.39
2019-03-29T00:30:06.031Z,62900.58
2019-03-29T00:32:32.259Z,62886.96
2019-03-29T00:34:58.484Z,62875.51
2019-03-29T00:37:24.728Z,62870.80
2019-03-29T00:39:50.955Z,62856.01
2019-03-29T00:42:17.347Z,62854.19
2019-03-29T00:44:43.619Z,62870.05
2019-03-29T00:47:09.849Z,62873.54
2019-03-29T00:49:36.071Z,62866.23
2019-03-29T00:52:02.350Z,62866.04
2019-03-29T00:54:28.566Z,62871.90
2019-03-29T00:56:54.802Z,62882.37
2019-03-29T00:59:21.048Z,62872.32
2019-03-29T01:01:47.284Z,62862.64
2019-03-29T01:04:13.521Z,62862.09
2019-03-29T01:06:39.755Z,62873.32
2019-03-29T01:09:05.979Z,62894.57
2019-03-29T01:11:32.215Z,62884.56
2019-03-29T01:13:58.460Z,62888.66
2019-03-29T01:16:24.691Z,62883.14
2019-03-29T01:18:50.923Z,62898.61
2019-03-29T01:21:17.169Z,62914.75
2019-03-29T01:23:43.409Z,62914.08
2019-03-29T01:26:09.623Z,62909.51
2019-03-29T01:28:35.866Z,62914.75
2019-03-29T01:31:02.088Z,62934.58
2019-03-29T01:33:28.325Z,62942.67
2019-03-29T01:35:54.547Z,62922.38
2019-03-29T01:38:22.468Z,62942.34
2019-03-29T01:40:49.015Z,62975.47
2019-03-29T01:43:15.259Z,62988.15
2019-03-29T01:45:41.479Z,62971.65
2019-03-29T01:48:07.719Z,62983.45
2019-03-29T01:50:34.936Z,62985.71
2019-03-29T01:53:02.090Z,62981.14
2019-03-29T01:55:28.320Z,62972.87
2019-03-29T01:57:54.568Z,62969.68
2019-03-29T02:00:40.547Z,62985.63
2019-03-29T02:03:06.780Z,62992.52
2019-03-29T02:05:33.015Z,62995.44
2019-03-29T02:07:59.352Z,62992.17
2019-03-29T02:10:25.575Z,62996.87
2019-03-29T02:12:51.835Z,62993.39
2019-03-29T02:15:18.062Z,62992.72
2019-03-29T02:17:44.292Z,62999.46
2019-03-29T02:20:51.832Z,62993.39
2019-03-29T02:23:18.075Z,63020.96
2019-03-29T02:25:44.303Z,63021.51
2019-03-29T02:28:51.848Z,63032.75
2019-03-29T02:31:18.085Z,63020.21
2019-03-29T02:33:44.337Z,63013.79
2019-03-29T02:36:10.555Z,63003.29
2019-03-29T02:38:54.103Z,62998.51
2019-03-29T02:41:04.912Z,62998.04
2019-03-29T02:43:31.139Z,62992.17
2019-03-29T02:45:57.790Z,62987.25
2019-03-29T02:48:25.702Z,62991.38
2019-03-29T02:50:51.945Z,62990.67
2019-03-29T02:53:18.167Z,62991.22
2019-03-29T02:55:44.414Z,63012.90
2019-03-29T02:58:10.637Z,63015.29
2019-03-29T03:00:36.882Z,63021.43
2019-03-29T03:03:03.200Z,63023.48
2019-03-29T03:05:29.442Z,63028.06
2019-03-29T03:07:55.672Z,63018.37
2019-03-29T03:10:21.915Z,63021.84
2019-03-29T03:12:48.145Z,63039.09
2019-03-29T03:15:55.679Z,63044.02
2019-03-29T03:18:21.913Z,63045.09
2019-03-29T03:20:48.150Z,63048.24
2019-03-29T03:23:14.379Z,63042.17
2019-03-29T03:25:40.634Z,63052.41
2019-03-29T03:28:06.861Z,63041.50
2019-03-29T03:30:33.101Z,63050.77
2019-03-29T03:32:59.334Z,63043.27
2019-03-29T03:35:25.575Z,63053.91
2019-03-29T03:37:51.817Z,63062.56
2019-03-29T03:40:18.152Z,63059.83
2019-03-29T03:42:44.373Z,63054.16
2019-03-29T03:45:10.623Z,63052.19
2019-03-29T03:48:18.165Z,63048.04
2019-03-29T03:50:44.411Z,63057.61
2019-03-29T03:53:10.655Z,63067.48
2019-03-29T03:56:18.184Z,63068.90
2019-03-29T03:58:44.405Z,63071.50
2019-03-29T04:01:10.652Z,63071.42
2019-03-29T04:03:36.874Z,63071.42
2019-03-29T04:06:03.121Z,63094.77
2019-03-29T04:08:29.351Z,63081.79
2019-03-29T04:13:49.150Z,63058.21
2019-03-29T04:16:15.388Z,63066.09
2019-03-29T04:18:41.628Z,63098.06
2019-03-29T04:21:07.851Z,63110.29
2019-03-29T04:23:34.093Z,63085.17
2019-03-29T04:26:00.428Z,63070.00
2019-03-29T04:28:26.706Z,63071.30
2019-03-29T04:30:52.922Z,63090.62
2019-03-29T04:33:19.154Z,63106.79
2019-03-29T04:38:45.680Z,63086.04
2019-03-29T04:41:12.015Z,63094.77
2019-03-29T04:43:38.256Z,63088.22
2019-03-29T04:46:04.479Z,63082.77
2019-03-29T04:48:30.735Z,63083.87
2019-03-29T04:50:56.958Z,63075.47
2019-03-29T04:53:23.188Z,63092.80
2019-03-29T04:55:49.458Z,63103.19
2019-03-29T04:58:15.674Z,63098.27
2019-03-29T05:00:41.883Z,63119.56
2019-03-29T05:03:08.127Z,63138.83
2019-03-29T05:05:34.351Z,63119.02
2019-03-29T05:08:00.588Z,63114.86
2019-03-29T05:10:26.807Z,63142.54
2019-03-29T05:12:53.042Z,63149.64
2019-03-29T05:15:19.280Z,63147.87
2019-03-29T05:17:45.531Z,63161.32
2019-03-29T05:20:18.907Z,63158.57
2019-03-29T05:22:45.133Z,63154.66
2019-03-29T05:25:11.368Z,63158.16
2019-03-29T05:27:37.595Z,63167.32
2019-03-29T05:30:45.135Z,63179.13
2019-03-29T05:33:11.390Z,63174.89
2019-03-29T05:35:37.620Z,63174.67
2019-03-29T05:38:03.841Z,63172.92
2019-03-29T05:40:35.219Z,63165.55
2019-03-29T05:42:58.208Z,63159.26
2019-03-29T05:45:24.450Z,63159.12
2019-03-29T05:47:50.675Z,63152.91
2019-03-29T05:50:16.918Z,63147.56
2019-03-29T05:52:43.154Z,63161.64
2019-03-29T05:55:09.392Z,63177.70
2019-03-29T05:57:35.619Z,63183.18
2019-03-29T06:00:43.164Z,63212.90
2019-03-29T06:03:10.202Z,63231.39
2019-03-29T06:05:37.875Z,63249.90
2019-03-29T06:08:04.099Z,63275.78
2019-03-29T06:10:30.381Z,63268.38
2019-03-29T06:12:56.604Z,63264.96
2019-03-29T06:15:22.845Z,63262.43
2019-03-29T06:17:49.372Z,63271.20
2019-03-29T06:20:17.232Z,63262.99
2019-03-29T06:22:43.461Z,63278.86
2019-03-29T06:25:09.906Z,63284.66
2019-03-29T06:27:36.144Z,63279.73
2019-03-29T06:30:43.683Z,63272.30
2019-03-29T06:33:09.915Z,63294.50
2019-03-29T06:36:17.471Z,63302.20
2019-03-29T06:41:57.520Z,63329.75
2019-03-29T06:44:23.749Z,63330.21
2019-03-29T06:46:49.999Z,63346.28
2019-03-29T06:49:16.242Z,63354.84
2019-03-29T06:51:42.479Z,63384.91
2019-03-29T06:54:08.708Z,63398.41
2019-03-29T06:56:34.950Z,63411.89
2019-03-29T06:59:01.185Z,63463.72
2019-03-29T07:01:27.425Z,63463.17
2019-03-29T07:03:53.652Z,63454.96
2019-03-29T07:06:19.893Z,63507.36
2019-03-29T07:08:46.203Z,63517.23
2019-03-29T07:11:17.679Z,63575.02
2019-03-29T07:13:40.581Z,63611.36
2019-03-29T07:16:06.825Z,63598.94
2019-03-29T07:18:33.051Z,63586.77
2019-03-29T07:20:59.295Z,63596.11
2019-03-29T07:23:25.521Z,63595.95
2019-03-29T07:25:51.751Z,63557.03
2019-03-29T07:28:17.996Z,63568.34
2019-03-29T07:30:44.214Z,63626.07
2019-03-29T07:33:10.464Z,63665.48
2019-03-29T07:35:36.674Z,63676.78
2019-03-29T07:38:03.004Z,63636.04
2019-03-29T07:40:29.232Z,63675.05
2019-03-29T07:42:55.464Z,63714.13
2019-03-29T07:45:21.684Z,63752.16
2019-03-29T07:47:47.918Z,63783.71
2019-03-29T07:50:14.146Z,63808.67
2019-03-29T07:52:40.387Z,63807.57
2019-03-29T07:58:13.971Z,63807.02
2019-03-29T08:00:40.192Z,63807.13
2019-03-29T08:03:06.434Z,63769.10
2019-03-29T08:05:35.248Z,63719.20
2019-03-29T08:08:00.806Z,63704.80
2019-03-29T08:10:31.022Z,63741.38
2019-03-29T08:12:55.172Z,63762.28
2019-03-29T08:15:21.422Z,63783.16
2019-03-29T08:17:47.657Z,63819.67
2019-03-29T08:20:38.935Z,63867.18
2019-03-29T08:22:42.031Z,63886.34
2019-03-29T08:25:49.569Z,63884.46
2019-03-29T08:28:15.823Z,63950.84
2019-03-29T08:30:42.052Z,63924.52
2019-03-29T08:33:08.275Z,63918.69
2019-03-29T08:35:34.521Z,63939.60
2019-03-29T08:38:00.748Z,63914.96
2019-03-29T08:40:26.989Z,63893.59
2019-03-29T08:42:53.209Z,63856.18
2019-03-29T08:45:19.457Z,63828.00
2019-03-29T08:47:45.679Z,63800.08
2019-03-29T08:50:12.130Z,63782.28
2019-03-29T08:52:38.374Z,63787.24
2019-03-29T08:55:46.529Z,63793.71
2019-03-29T08:58:12.838Z,63814.50
2019-03-29T09:00:39.084Z,63868.95
2019-03-29T09:03:05.312Z,63844.07
2019-03-29T09:05:31.559Z,63777.88
2019-03-29T09:11:11.389Z,63701.16
2019-03-29T09:13:37.629Z,63650.88
2019-03-29T09:16:03.875Z,63642.75
2019-03-29T09:18:30.106Z,63612.36
2019-03-29T09:20:56.343Z,63581.48
2019-03-29T09:23:22.568Z,63553.30
2019-03-29T09:25:48.816Z,63544.18
2019-03-29T09:28:15.036Z,63541.66
2019-03-29T09:30:41.279Z,63509.09
2019-03-29T09:33:07.510Z,63332.91
2019-03-29T09:38:28.072Z,63471.39
2019-03-29T09:40:58.703Z,63473.58
2019-03-29T09:43:22.474Z,63484.68
2019-03-29T09:45:48.700Z,63507.02
2019-03-29T09:48:15.011Z,63513.27
2019-03-29T09:50:41.269Z,63509.20
2019-03-29T09:53:07.491Z,63519.18
2019-03-29T09:55:33.730Z,63527.18
2019-03-29T09:57:59.971Z,63536.08
2019-03-29T10:00:26.204Z,63536.84
2019-03-29T10:02:52.429Z,63485.21
2019-03-29T10:05:20.152Z,63472.24
2019-03-29T10:07:46.801Z,63452.76
2019-03-29T10:10:13.131Z,63435.00
2019-03-29T10:12:43.792Z,63428.57
2019-03-29T10:15:07.599Z,63435.57
2019-03-29T10:17:33.835Z,63437.20
2019-03-29T10:20:00.255Z,63447.93
2019-03-29T10:22:28.203Z,63525.55
2019-03-29T10:24:54.537Z,63590.73
2019-03-29T10:27:20.772Z,63634.31
2019-03-29T10:29:46.998Z,63642.32
2019-03-29T10:32:13.235Z,63666.70
2019-03-29T10:34:39.467Z,63682.29
2019-03-29T10:37:05.711Z,63709.07
2019-03-29T10:39:35.336Z,63756.11
2019-03-29T10:45:00.840Z,63746.10
2019-03-29T10:47:42.527Z,63781.08
2019-03-29T10:49:55.227Z,63810.66
2019-03-29T10:52:21.468Z,63822.73
2019-03-29T10:54:49.910Z,63839.25
2019-03-29T10:57:15.850Z,63830.44
2019-03-29T10:59:42.071Z,63768.34
2019-03-29T11:02:08.296Z,63725.67
2019-03-29T11:04:34.541Z,63685.57
2019-03-29T11:07:00.762Z,63702.04
2019-03-29T11:09:27.014Z,63712.61
2019-03-29T11:11:53.232Z,63751.61
2019-03-29T11:14:19.475Z,63772.39
2019-03-29T11:16:45.711Z,63790.19
2019-03-29T11:19:12.072Z,63744.36
2019-03-29T11:24:45.654Z,63656.47
2019-03-29T11:27:11.871Z,63641.21
2019-03-29T11:29:38.119Z,63623.23
2019-03-29T11:32:04.365Z,63587.74
2019-03-29T11:34:30.599Z,63535.20
2019-03-29T11:36:56.823Z,63504.74
2019-03-29T11:39:23.057Z,63478.95
2019-03-29T11:41:49.309Z,63455.41
2019-03-29T11:44:15.543Z,63452.55
2019-03-29T11:46:41.768Z,63476.08
2019-03-29T11:49:08.024Z,63485.44
2019-03-29T11:51:34.224Z,63490.12
2019-03-29T11:54:00.459Z,63492.98
2019-03-29T11:56:26.683Z,63550.54
2019-03-29T11:58:52.909Z,63621.77
2019-03-29T12:01:19.147Z,63642.32
2019-03-29T12:03:45.385Z,63680.86
2019-03-29T12:06:11.611Z,63641.10
2019-03-29T12:08:37.830Z,63596.87
2019-03-29T12:11:04.067Z,63526.42
2019-03-29T12:13:41.081Z,63474.68
2019-03-29T12:15:58.446Z,63487.82
2019-03-29T12:18:24.674Z,63522.70
2019-03-29T12:20:54.237Z,63550.54
2019-03-29T12:23:19.049Z,63553.84
2019-03-29T12:25:45.283Z,63557.14
2019-03-29T12:28:11.507Z,63560.00
2019-03-29T12:30:37.940Z,63560.00
2019-03-29T12:33:04.179Z,63584.77
2019-03-29T12:35:30.426Z,63578.10
2019-03-29T12:37:56.647Z,63571.84
2019-03-29T12:40:22.881Z,63568.23
2019-03-29T12:42:49.117Z,63562.82
2019-03-29T12:45:15.356Z,63581.16
2019-03-29T12:47:41.575Z,63581.27
2019-03-29T12:50:07.913Z,63596.02
2019-03-29T12:52:34.130Z,63584.56
2019-03-29T12:55:00.354Z,63580.84
2019-03-29T12:57:26.583Z,63569.86
2019-03-29T12:59:52.822Z,63560.09
2019-03-29T13:02:19.060Z,63555.70
2019-03-29T13:07:53.259Z,63496.81
2019-03-29T13:10:20.974Z,63479.95
2019-03-29T13:12:47.216Z,63466.01
2019-03-29T13:15:13.446Z,63419.21
2019-03-29T13:17:39.691Z,63385.04
2019-03-29T13:20:47.237Z,63359.43
2019-03-29T13:23:13.476Z,63339.25
2019-03-29T13:25:39.698Z,63322.41
2019-03-29T13:28:05.944Z,63319.55
2019-03-29T13:30:32.174Z,63301.07
2019-03-29T13:32:58.414Z,63290.12
2019-03-29T13:35:24.633Z,63277.67
2019-03-29T13:37:50.875Z,63273.38
2019-03-29T13:40:17.103Z,63267.71
2019-03-29T13:42:43.360Z,63272.97
2019-03-29T13:48:17.160Z,63298.13
2019-03-29T13:50:43.419Z,63306.20
2019-03-29T13:53:09.634Z,63290.68
2019-03-29T13:55:35.864Z,63266.82
2019-03-29T13:58:02.095Z,63246.38
2019-03-29T14:00:28.322Z,63234.14
2019-03-29T14:02:54.551Z,63225.30
2019-03-29T14:05:20.772Z,63215.55
2019-03-29T14:07:47.007Z,63213.11
2019-03-29T14:10:13.433Z,63204.49
2019-03-29T14:12:39.668Z,63204.49
2019-03-29T14:15:47.192Z,63198.81
2019-03-29T14:18:13.445Z,63188.63
2019-03-29T14:20:39.667Z,63198.14
2019-03-29T14:23:05.903Z,63189.30
2019-03-29T14:25:32.131Z,63188.21
2019-03-29T14:27:58.382Z,63184.40
2019-03-29T14:30:24.620Z,63170.80
2019-03-29T14:32:50.842Z,63165.27
2019-03-29T14:35:17.070Z,63158.37
2019-03-29T14:37:43.291Z,63154.89
2019-03-29T14:40:50.848Z,63144.80
2019-03-29T14:43:17.175Z,63135.43
2019-03-29T14:45:43.404Z,63127.91
2019-03-29T14:48:09.632Z,63125.34
2019-03-29T14:50:35.872Z,63105.69
2019-03-29T14:53:02.102Z,63102.84
2019-03-29T14:55:28.407Z,63091.37
2019-03-29T14:57:54.631Z,63103.52
2019-03-29T15:01:02.206Z,63096.96
2019-03-29T15:03:28.427Z,63088.89
2019-03-29T15:08:49.896Z,63073.70
2019-03-29T15:11:22.523Z,63068.45
2019-03-29T15:13:45.459Z,63054.08
2019-03-29T15:16:11.750Z,63051.66
2019-03-29T15:18:38.000Z,63047.49
2019-03-29T15:21:04.242Z,63041.27
2019-03-29T15:23:30.469Z,63039.30
2019-03-29T15:25:56.733Z,63037.13
2019-03-29T15:28:22.940Z,63038.75
2019-03-29T15:30:52.184Z,63045.32
2019-03-29T15:33:17.299Z,63036.03
2019-03-29T15:35:43.538Z,63029.95
2019-03-29T15:38:09.759Z,63038.00
2019-03-29T15:40:36.005Z,63033.65
2019-03-29T15:43:02.227Z,63032.75
2019-03-29T15:45:28.463Z,63015.50
2019-03-29T15:47:54.688Z,63012.10
2019-03-29T15:50:20.931Z,63005.40
2019-03-29T15:52:47.205Z,63013.65
2019-03-29T15:55:13.440Z,63000.91
2019-03-29T15:57:39.659Z,62995.66
2019-03-29T16:00:47.203Z,62981.81
2019-03-29T16:03:13.462Z,62976.36
2019-03-29T16:05:39.708Z,62974.92
2019-03-29T16:08:05.934Z,62968.05
2019-03-29T16:10:32.173Z,62967.08
2019-03-29T16:12:58.393Z,62961.68
2019-03-29T16:15:34.201Z,62960.74
2019-03-29T16:17:52.821Z,62965.03
2019-03-29T16:20:19.048Z,62968.38
2019-03-29T16:22:45.302Z,62977.44
2019-03-29T16:25:11.894Z,62968.30
2019-03-29T16:27:38.096Z,62966.41
2019-03-29T16:30:24.079Z,62958.77
2019-03-29T16:32:50.322Z,62959.87
2019-03-29T16:35:16.630Z,62957.59
2019-03-29T16:37:56.350Z,62943.09
2019-03-29T16:40:11.248Z,62930.89
2019-03-29T16:42:37.981Z,62925.65
2019-03-29T16:45:48.253Z,62913.85
2019-03-29T16:48:13.707Z,62905.69
2019-03-29T16:50:39.912Z,62895.67
2019-03-29T16:53:06.249Z,62884.64
2019-03-29T16:55:32.473Z,62869.50
2019-03-29T16:58:18.463Z,62881.38
2019-03-29T17:00:44.695Z,62865.02
2019-03-29T17:03:10.941Z,62859.15
2019-03-29T17:05:37.271Z,62852.82
2019-03-29T17:08:05.217Z,62841.53
2019-03-29T17:10:31.659Z,62834.10
2019-03-29T17:12:57.907Z,62823.00
2019-03-29T17:15:24.136Z,62822.13
2019-03-29T17:17:50.425Z,62818.72
2019-03-29T17:20:16.631Z,62815.80
2019-03-29T17:22:43.392Z,62807.97
2019-03-29T17:25:11.069Z,62815.80
2019-03-29T17:27:58.972Z,62813.21
2019-03-29T17:31:04.707Z,62808.10
2019-03-29T17:33:30.945Z,62789.04
2019-03-29T17:35:57.183Z,62774.56
2019-03-29T17:38:23.424Z,62763.20
2019-03-29T17:40:49.666Z,62788.49
2019-03-29T17:43:15.960Z,62783.68
2019-03-29T17:45:42.168Z,62782.16
2019-03-29T17:48:08.404Z,62765.84
2019-03-29T17:50:34.627Z,62754.08
2019-03-29T17:53:00.883Z,62740.48
2019-03-29T17:55:27.126Z,62729.05
2019-03-29T17:57:53.368Z,62723.89
2019-03-29T18:00:39.360Z,62711.50
2019-03-29T18:03:05.593Z,62721.76
2019-03-29T18:05:31.836Z,62704.70
2019-03-29T18:07:58.064Z,62694.22
2019-03-29T18:10:24.314Z,62683.49
2019-03-29T18:12:50.546Z,62682.14
2019-03-29T18:18:13.079Z,62661.74
2019-03-29T18:20:38.759Z,62652.16
2019-03-29T18:23:04.984Z,62652.50
2019-03-29T18:25:31.221Z,62639.39
2019-03-29T18:27:57.483Z,62624.99
2019-03-29T18:30:43.580Z,62629.32
2019-03-29T18:33:09.915Z,62620.63
2019-03-29T18:35:36.144Z,62609.96
2019-03-29T18:38:02.405Z,62595.77
2019-03-29T18:40:29.448Z,62594.96
2019-03-29T18:42:55.663Z,62602.83
2019-03-29T18:45:21.908Z,62601.28
2019-03-29T18:47:48.137Z,62591.48
2019-03-29T18:50:14.379Z,62603.45
2019-03-29T18:52:42.750Z,62597.13
2019-03-29T18:55:08.749Z,62585.04
2019-03-29T18:57:34.973Z,62581.16
2019-03-29T19:00:01.192Z,62574.65
2019-03-29T19:02:27.432Z,62566.97
2019-03-29T19:04:53.658Z,62566.62
2019-03-29T19:07:41.452Z,62561.00
2019-03-29T19:13:15.160Z,62557.53
2019-03-29T19:15:41.394Z,62567.66
2019-03-29T19:18:07.635Z,62550.89
2019-03-29T19:20:33.861Z,62547.83
2019-03-29T19:23:00.106Z,62547.83
2019-03-29T19:25:26.329Z,62538.06
2019-03-29T19:27:52.574Z,62528.82
2019-03-29T19:31:00.124Z,62521.43
2019-03-29T19:33:26.363Z,62509.61
2019-03-29T19:35:52.599Z,62504.32
2019-03-29T19:38:18.836Z,62500.74
2019-03-29T19:40:45.056Z,62503.93
2019-03-29T19:43:11.647Z,62496.94
2019-03-29T19:45:39.447Z,62502.10
2019-03-29T19:48:05.679Z,62496.59
2019-03-29T19:50:31.903Z,62497.27
2019-03-29T19:52:58.161Z,62498.77
2019-03-29T19:55:24.388Z,62496.26
2019-03-29T19:57:50.646Z,62485.95
2019-03-29T20:00:16.949Z,62479.64
2019-03-29T20:02:43.178Z,62473.33
2019-03-29T20:05:50.729Z,62468.17
2019-03-29T20:08:16.959Z,62466.28
2019-03-29T20:10:43.218Z,62453.72
2019-03-29T20:13:09.459Z,62449.66
2019-03-29T20:15:35.686Z,62449.79
2019-03-29T20:18:02.127Z,62443.41
2019-03-29T20:20:28.359Z,62436.04
2019-03-29T20:23:35.995Z,62428.96
2019-03-29T20:26:02.218Z,62420.62
2019-03-29T20:28:28.454Z,62411.21
2019-03-29T20:30:54.683Z,62406.20
2019-03-29T20:33:20.915Z,62398.95
2019-03-29T20:35:47.355Z,62392.64
2019-03-29T20:38:13.607Z,62386.14
2019-03-29T20:40:39.844Z,62370.35
2019-03-29T20:43:06.060Z,62366.68
2019-03-29T20:45:32.315Z,62357.06
2019-03-29T20:47:58.547Z,62350.37
2019-03-29T20:50:24.781Z,62342.36
2019-03-29T20:52:51.005Z,62340.40
2019-03-29T20:55:17.252Z,62336.28
2019-03-29T20:57:43.474Z,62337.95
2019-03-29T21:00:51.015Z,62331.94
2019-03-29T21:03:17.267Z,62336.73
2019-03-29T21:05:43.515Z,62338.30
2019-03-29T21:08:09.748Z,62338.63
2019-03-29T21:10:35.986Z,62336.28
2019-03-29T21:13:02.227Z,62337.76
2019-03-29T21:15:28.455Z,62330.52
2019-03-29T21:17:57.042Z,62324.15
2019-03-29T21:20:22.816Z,62325.44
2019-03-29T21:22:49.041Z,62324.48
2019-03-29T21:25:15.276Z,62331.04
2019-03-29T21:27:41.501Z,62336.47
2019-03-29T21:30:49.049Z,62339.05
2019-03-29T21:33:15.290Z,62333.36
2019-03-29T21:35:41.514Z,62332.94
2019-03-29T21:38:07.760Z,62337.34
2019-03-29T21:40:34.003Z,62333.36
2019-03-29T21:43:01.809Z,62331.52
2019-03-29T21:45:29.290Z,62329.14
2019-03-29T21:48:10.028Z,62328.08
2019-03-29T21:50:24.680Z,62329.23
2019-03-29T21:52:50.912Z,62323.13
2019-03-29T21:55:17.164Z,62331.59
2019-03-29T21:57:43.408Z,62331.72
2019-03-29T22:03:03.654Z,62334.77
2019-03-29T22:05:29.892Z,62328.62
2019-03-29T22:07:56.119Z,62326.44
2019-03-29T22:10:22.354Z,62327.79
2019-03-29T22:12:48.647Z,62331.52
2019-03-29T22:15:15.076Z,62342.56
2019-03-29T22:17:41.310Z,62338.63
2019-03-29T22:20:48.836Z,62335.86
2019-03-29T22:23:15.071Z,62337.02
2019-03-29T22:25:41.309Z,62321.52
2019-03-29T22:28:07.552Z,62322.87
2019-03-29T22:30:33.775Z,62326.86
2019-03-29T22:33:00.007Z,62325.22
2019-03-29T22:35:26.324Z,62324.89
2019-03-29T22:37:52.581Z,62317.24
2019-03-29T22:40:18.796Z,62316.35
2019-03-29T22:42:45.042Z,62315.82
2019-03-29T22:45:11.467Z,62313.99
2019-03-29T22:47:37.709Z,62310.20
2019-03-29T22:53:17.285Z,62304.99
2019-03-29T22:55:43.506Z,62305.18
2019-03-29T22:58:09.756Z,62306.80
2019-03-29T23:01:17.284Z,62300.58
2019-03-29T23:03:43.523Z,62297.05
2019-03-29T23:06:09.864Z,62287.05
2019-03-29T23:08:36.201Z,62289.62
2019-03-29T23:11:02.424Z,62288.73
2019-03-29T23:13:28.673Z,62287.50
2019-03-29T23:15:54.935Z,62284.80
2019-03-29T23:18:21.180Z,62281.49
2019-03-29T23:20:47.407Z,62287.99
2019-03-29T23:23:13.647Z,62325.96
2019-03-29T23:25:39.909Z,62335.93
2019-03-29T23:28:06.178Z,62330.98
2019-03-29T23:30:32.446Z,62345.35
2019-03-29T23:32:58.689Z,62344.06
2019-03-29T23:35:24.914Z,62343.52
2019-03-29T23:37:51.171Z,62338.77
2019-03-29T23:40:17.396Z,62332.81
2019-03-29T23:42:43.619Z,62341.27
2019-03-29T23:45:09.989Z,62343.11
2019-03-29T23:47:36.211Z,62339.11
2019-03-29T23:50:43.748Z,62341.01
2019-03-29T23:53:09.981Z,62333.00
2019-03-29T23:55:36.230Z,62342.10
2019-03-29T23:58:02.480Z,62342.36
